sensor_id;sensor_type;location;lat;lon;timestamp;P1;durP1;ratioP1;P2;durP2;ratioP2
11998;SDS011;40817;51.520;9.954;2023-08-06T00:01:39;3.10;;;1.35;;
11998;SDS011;40817;51.520;9.954;2023-08-06T00:04:07;3.22;;;1.70;;
11998;SDS011;40817;51.520;9.954;2023-08-06T00:06:35;1.98;;;1.40;;
11998;SDS011;40817;51.520;9.954;2023-08-06T00:09:02;3.05;;;1.63;;
11998;SDS011;40817;51.520;9.954;2023-08-06T00:11:30;3.55;;;1.88;;
11998;SDS011;40817;51.520;9.954;2023-08-06T00:13:57;3.83;;;1.58;;
11998;SDS011;40817;51.520;9.954;2023-08-06T00:16:25;2.88;;;1.60;;
11998;SDS011;40817;51.520;9.954;2023-08-06T00:18:56;3.03;;;1.90;;
11998;SDS011;40817;51.520;9.954;2023-08-06T00:21:23;3.10;;;2.05;;
11998;SDS011;40817;51.520;9.954;2023-08-06T00:23:51;3.20;;;1.95;;
11998;SDS011;40817;51.520;9.954;2023-08-06T00:26:19;3.75;;;1.73;;
11998;SDS011;40817;51.520;9.954;2023-08-06T00:28:46;4.40;;;1.73;;
11998;SDS011;40817;51.520;9.954;2023-08-06T00:31:13;4.35;;;1.95;;
11998;SDS011;40817;51.520;9.954;2023-08-06T00:33:41;3.03;;;1.70;;
11998;SDS011;40817;51.520;9.954;2023-08-06T00:36:10;3.33;;;2.10;;
11998;SDS011;40817;51.520;9.954;2023-08-06T00:38:37;3.95;;;1.90;;
11998;SDS011;40817;51.520;9.954;2023-08-06T00:41:05;3.05;;;1.95;;
11998;SDS011;40817;51.520;9.954;2023-08-06T00:43:34;4.00;;;1.88;;
11998;SDS011;40817;51.520;9.954;2023-08-06T00:46:02;2.55;;;1.55;;
11998;SDS011;40817;51.520;9.954;2023-08-06T00:48:29;3.78;;;1.88;;
11998;SDS011;40817;51.520;9.954;2023-08-06T00:50:57;3.17;;;1.80;;
11998;SDS011;40817;51.520;9.954;2023-08-06T00:53:26;4.05;;;1.77;;
11998;SDS011;40817;51.520;9.954;2023-08-06T00:55:54;3.33;;;1.73;;
11998;SDS011;40817;51.520;9.954;2023-08-06T00:58:22;2.78;;;1.75;;
11998;SDS011;40817;51.520;9.954;2023-08-06T01:00:49;3.10;;;1.60;;
11998;SDS011;40817;51.520;9.954;2023-08-06T01:03:17;3.58;;;1.70;;
11998;SDS011;40817;51.520;9.954;2023-08-06T01:05:45;4.72;;;1.80;;
11998;SDS011;40817;51.520;9.954;2023-08-06T01:08:16;3.65;;;1.63;;
11998;SDS011;40817;51.520;9.954;2023-08-06T01:11:00;3.58;;;1.80;;
11998;SDS011;40817;51.520;9.954;2023-08-06T01:13:49;2.85;;;1.50;;
11998;SDS011;40817;51.520;9.954;2023-08-06T01:16:24;3.25;;;1.67;;
11998;SDS011;40817;51.520;9.954;2023-08-06T01:18:52;3.15;;;1.60;;
11998;SDS011;40817;51.520;9.954;2023-08-06T01:21:21;4.63;;;1.58;;
11998;SDS011;40817;51.520;9.954;2023-08-06T01:23:48;2.97;;;1.40;;
11998;SDS011;40817;51.520;9.954;2023-08-06T01:26:19;1.75;;;1.30;;
11998;SDS011;40817;51.520;9.954;2023-08-06T01:28:59;4.10;;;1.45;;
11998;SDS011;40817;51.520;9.954;2023-08-06T01:31:35;2.67;;;1.73;;
11998;SDS011;40817;51.520;9.954;2023-08-06T01:34:06;3.67;;;1.40;;
11998;SDS011;40817;51.520;9.954;2023-08-06T01:36:48;1.85;;;1.20;;
11998;SDS011;40817;51.520;9.954;2023-08-06T01:39:17;2.28;;;1.27;;
11998;SDS011;40817;51.520;9.954;2023-08-06T01:41:46;2.13;;;1.20;;
11998;SDS011;40817;51.520;9.954;2023-08-06T01:44:13;2.78;;;1.40;;
11998;SDS011;40817;51.520;9.954;2023-08-06T01:46:42;4.68;;;1.48;;
11998;SDS011;40817;51.520;9.954;2023-08-06T01:49:09;2.70;;;1.40;;
11998;SDS011;40817;51.520;9.954;2023-08-06T01:51:36;5.90;;;1.58;;
11998;SDS011;40817;51.520;9.954;2023-08-06T01:54:05;2.90;;;1.40;;
11998;SDS011;40817;51.520;9.954;2023-08-06T01:56:32;4.53;;;1.60;;
11998;SDS011;40817;51.520;9.954;2023-08-06T01:59:00;3.35;;;1.30;;
11998;SDS011;40817;51.520;9.954;2023-08-06T02:01:27;4.32;;;1.70;;
11998;SDS011;40817;51.520;9.954;2023-08-06T02:03:55;2.53;;;1.45;;
11998;SDS011;40817;51.520;9.954;2023-08-06T02:06:22;2.38;;;1.40;;
11998;SDS011;40817;51.520;9.954;2023-08-06T02:08:50;2.67;;;1.30;;
11998;SDS011;40817;51.520;9.954;2023-08-06T02:11:19;2.10;;;1.20;;
11998;SDS011;40817;51.520;9.954;2023-08-06T02:13:46;2.92;;;1.33;;
11998;SDS011;40817;51.520;9.954;2023-08-06T02:16:13;2.92;;;1.30;;
11998;SDS011;40817;51.520;9.954;2023-08-06T02:18:41;3.22;;;1.77;;
11998;SDS011;40817;51.520;9.954;2023-08-06T02:21:09;3.20;;;1.20;;
11998;SDS011;40817;51.520;9.954;2023-08-06T02:23:36;2.33;;;1.30;;
11998;SDS011;40817;51.520;9.954;2023-08-06T02:28:32;3.15;;;1.45;;
11998;SDS011;40817;51.520;9.954;2023-08-06T02:31:00;1.95;;;1.35;;
11998;SDS011;40817;51.520;9.954;2023-08-06T02:33:27;3.40;;;1.33;;
11998;SDS011;40817;51.520;9.954;2023-08-06T02:36:01;5.40;;;2.15;;
11998;SDS011;40817;51.520;9.954;2023-08-06T02:38:30;3.35;;;1.35;;
11998;SDS011;40817;51.520;9.954;2023-08-06T02:40:58;1.92;;;1.30;;
11998;SDS011;40817;51.520;9.954;2023-08-06T02:43:29;2.40;;;1.30;;
11998;SDS011;40817;51.520;9.954;2023-08-06T02:45:58;2.53;;;1.40;;
11998;SDS011;40817;51.520;9.954;2023-08-06T02:48:27;3.13;;;1.65;;
11998;SDS011;40817;51.520;9.954;2023-08-06T02:50:56;3.15;;;1.40;;
11998;SDS011;40817;51.520;9.954;2023-08-06T02:53:25;3.03;;;1.27;;
11998;SDS011;40817;51.520;9.954;2023-08-06T02:55:53;2.92;;;1.45;;
11998;SDS011;40817;51.520;9.954;2023-08-06T02:58:20;3.47;;;1.40;;
11998;SDS011;40817;51.520;9.954;2023-08-06T03:00:59;2.03;;;1.50;;
11998;SDS011;40817;51.520;9.954;2023-08-06T03:03:48;2.60;;;1.55;;
11998;SDS011;40817;51.520;9.954;2023-08-06T03:06:17;2.38;;;1.30;;
11998;SDS011;40817;51.520;9.954;2023-08-06T03:08:44;4.22;;;1.13;;
11998;SDS011;40817;51.520;9.954;2023-08-06T03:11:12;2.15;;;1.17;;
11998;SDS011;40817;51.520;9.954;2023-08-06T03:13:39;4.22;;;1.65;;
11998;SDS011;40817;51.520;9.954;2023-08-06T03:16:08;1.92;;;1.38;;
11998;SDS011;40817;51.520;9.954;2023-08-06T03:18:36;3.63;;;1.60;;
11998;SDS011;40817;51.520;9.954;2023-08-06T03:21:03;2.70;;;1.35;;
11998;SDS011;40817;51.520;9.954;2023-08-06T03:23:31;3.22;;;1.33;;
11998;SDS011;40817;51.520;9.954;2023-08-06T03:26:00;3.13;;;1.45;;
11998;SDS011;40817;51.520;9.954;2023-08-06T03:28:28;1.88;;;1.30;;
11998;SDS011;40817;51.520;9.954;2023-08-06T03:30:59;4.78;;;1.77;;
11998;SDS011;40817;51.520;9.954;2023-08-06T03:33:29;1.90;;;1.30;;
11998;SDS011;40817;51.520;9.954;2023-08-06T03:35:56;2.47;;;1.15;;
11998;SDS011;40817;51.520;9.954;2023-08-06T03:38:25;3.05;;;1.67;;
11998;SDS011;40817;51.520;9.954;2023-08-06T03:40:53;1.90;;;1.20;;
11998;SDS011;40817;51.520;9.954;2023-08-06T03:43:20;2.15;;;1.35;;
11998;SDS011;40817;51.520;9.954;2023-08-06T03:45:48;1.98;;;1.30;;
11998;SDS011;40817;51.520;9.954;2023-08-06T03:48:15;3.10;;;1.50;;
11998;SDS011;40817;51.520;9.954;2023-08-06T03:50:44;2.75;;;1.40;;
11998;SDS011;40817;51.520;9.954;2023-08-06T03:53:12;2.80;;;1.23;;
11998;SDS011;40817;51.520;9.954;2023-08-06T03:55:39;2.40;;;1.52;;
11998;SDS011;40817;51.520;9.954;2023-08-06T03:58:07;1.77;;;1.30;;
11998;SDS011;40817;51.520;9.954;2023-08-06T04:00:34;2.10;;;1.48;;
11998;SDS011;40817;51.520;9.954;2023-08-06T04:03:01;2.08;;;1.45;;
11998;SDS011;40817;51.520;9.954;2023-08-06T04:05:30;4.32;;;1.75;;
11998;SDS011;40817;51.520;9.954;2023-08-06T04:07:59;2.20;;;1.42;;
11998;SDS011;40817;51.520;9.954;2023-08-06T04:10:27;1.55;;;1.20;;
11998;SDS011;40817;51.520;9.954;2023-08-06T04:12:54;3.22;;;1.30;;
11998;SDS011;40817;51.520;9.954;2023-08-06T04:15:22;3.42;;;1.58;;
11998;SDS011;40817;51.520;9.954;2023-08-06T04:17:49;2.00;;;1.25;;
11998;SDS011;40817;51.520;9.954;2023-08-06T04:20:17;2.05;;;1.40;;
11998;SDS011;40817;51.520;9.954;2023-08-06T04:22:44;3.70;;;1.90;;
11998;SDS011;40817;51.520;9.954;2023-08-06T04:25:13;2.20;;;1.70;;
11998;SDS011;40817;51.520;9.954;2023-08-06T04:27:46;3.30;;;1.30;;
11998;SDS011;40817;51.520;9.954;2023-08-06T04:30:13;4.20;;;1.35;;
11998;SDS011;40817;51.520;9.954;2023-08-06T04:32:41;2.88;;;1.58;;
11998;SDS011;40817;51.520;9.954;2023-08-06T04:35:08;2.25;;;1.42;;
11998;SDS011;40817;51.520;9.954;2023-08-06T04:37:36;3.45;;;1.48;;
11998;SDS011;40817;51.520;9.954;2023-08-06T04:40:04;4.63;;;1.60;;
11998;SDS011;40817;51.520;9.954;2023-08-06T04:42:34;2.08;;;1.45;;
11998;SDS011;40817;51.520;9.954;2023-08-06T04:45:02;2.63;;;1.58;;
11998;SDS011;40817;51.520;9.954;2023-08-06T04:47:30;3.05;;;1.50;;
11998;SDS011;40817;51.520;9.954;2023-08-06T04:49:58;2.10;;;1.42;;
11998;SDS011;40817;51.520;9.954;2023-08-06T04:52:25;3.05;;;1.45;;
11998;SDS011;40817;51.520;9.954;2023-08-06T04:54:53;3.03;;;1.60;;
11998;SDS011;40817;51.520;9.954;2023-08-06T04:57:21;2.42;;;1.52;;
11998;SDS011;40817;51.520;9.954;2023-08-06T04:59:50;2.22;;;1.42;;
11998;SDS011;40817;51.520;9.954;2023-08-06T05:02:18;4.32;;;1.48;;
11998;SDS011;40817;51.520;9.954;2023-08-06T05:04:45;2.70;;;1.65;;
11998;SDS011;40817;51.520;9.954;2023-08-06T05:07:12;2.15;;;1.70;;
11998;SDS011;40817;51.520;9.954;2023-08-06T05:09:40;2.97;;;1.25;;
11998;SDS011;40817;51.520;9.954;2023-08-06T05:12:07;4.20;;;1.65;;
11998;SDS011;40817;51.520;9.954;2023-08-06T05:14:36;3.03;;;1.83;;
11998;SDS011;40817;51.520;9.954;2023-08-06T05:17:05;3.63;;;1.73;;
11998;SDS011;40817;51.520;9.954;2023-08-06T05:19:34;3.08;;;1.45;;
11998;SDS011;40817;51.520;9.954;2023-08-06T05:22:01;2.55;;;1.75;;
11998;SDS011;40817;51.520;9.954;2023-08-06T05:24:29;3.63;;;1.63;;
11998;SDS011;40817;51.520;9.954;2023-08-06T05:26:57;2.88;;;1.85;;
11998;SDS011;40817;51.520;9.954;2023-08-06T05:29:24;4.38;;;1.40;;
11998;SDS011;40817;51.520;9.954;2023-08-06T05:31:52;1.95;;;1.40;;
11998;SDS011;40817;51.520;9.954;2023-08-06T05:34:21;2.15;;;1.40;;
11998;SDS011;40817;51.520;9.954;2023-08-06T05:36:48;2.95;;;1.60;;
11998;SDS011;40817;51.520;9.954;2023-08-06T05:39:16;2.10;;;1.30;;
11998;SDS011;40817;51.520;9.954;2023-08-06T05:41:43;2.22;;;1.38;;
11998;SDS011;40817;51.520;9.954;2023-08-06T05:44:10;3.72;;;1.52;;
11998;SDS011;40817;51.520;9.954;2023-08-06T05:46:44;2.20;;;1.45;;
11998;SDS011;40817;51.520;9.954;2023-08-06T05:49:11;2.55;;;1.30;;
11998;SDS011;40817;51.520;9.954;2023-08-06T05:51:41;4.55;;;1.65;;
11998;SDS011;40817;51.520;9.954;2023-08-06T05:54:08;1.70;;;1.13;;
11998;SDS011;40817;51.520;9.954;2023-08-06T05:56:36;4.50;;;1.48;;
11998;SDS011;40817;51.520;9.954;2023-08-06T05:59:05;4.53;;;1.55;;
11998;SDS011;40817;51.520;9.954;2023-08-06T06:01:33;2.75;;;1.40;;
11998;SDS011;40817;51.520;9.954;2023-08-06T06:04:00;7.13;;;2.15;;
11998;SDS011;40817;51.520;9.954;2023-08-06T06:06:28;3.47;;;1.73;;
11998;SDS011;40817;51.520;9.954;2023-08-06T06:08:57;2.72;;;1.73;;
11998;SDS011;40817;51.520;9.954;2023-08-06T06:11:24;2.40;;;1.50;;
11998;SDS011;40817;51.520;9.954;2023-08-06T06:13:51;4.25;;;1.80;;
11998;SDS011;40817;51.520;9.954;2023-08-06T06:16:19;3.42;;;1.90;;
11998;SDS011;40817;51.520;9.954;2023-08-06T06:18:51;2.80;;;1.63;;
11998;SDS011;40817;51.520;9.954;2023-08-06T06:21:23;5.47;;;2.15;;
11998;SDS011;40817;51.520;9.954;2023-08-06T06:23:59;4.05;;;1.92;;
11998;SDS011;40817;51.520;9.954;2023-08-06T06:26:26;7.53;;;2.10;;
11998;SDS011;40817;51.520;9.954;2023-08-06T06:28:53;2.72;;;1.73;;
11998;SDS011;40817;51.520;9.954;2023-08-06T06:31:20;2.30;;;1.70;;
11998;SDS011;40817;51.520;9.954;2023-08-06T06:33:48;3.47;;;1.80;;
11998;SDS011;40817;51.520;9.954;2023-08-06T06:36:18;2.38;;;1.85;;
11998;SDS011;40817;51.520;9.954;2023-08-06T06:38:47;2.40;;;1.90;;
11998;SDS011;40817;51.520;9.954;2023-08-06T06:41:25;3.65;;;1.95;;
11998;SDS011;40817;51.520;9.954;2023-08-06T06:43:55;2.17;;;1.77;;
11998;SDS011;40817;51.520;9.954;2023-08-06T06:46:22;2.92;;;1.95;;
11998;SDS011;40817;51.520;9.954;2023-08-06T06:48:49;3.85;;;2.28;;
11998;SDS011;40817;51.520;9.954;2023-08-06T06:51:17;2.58;;;1.92;;
11998;SDS011;40817;51.520;9.954;2023-08-06T06:53:45;3.05;;;1.80;;
11998;SDS011;40817;51.520;9.954;2023-08-06T06:56:12;2.83;;;1.80;;
11998;SDS011;40817;51.520;9.954;2023-08-06T06:58:44;3.10;;;1.90;;
11998;SDS011;40817;51.520;9.954;2023-08-06T07:01:12;3.40;;;1.73;;
11998;SDS011;40817;51.520;9.954;2023-08-06T07:03:39;3.30;;;1.80;;
11998;SDS011;40817;51.520;9.954;2023-08-06T07:06:07;4.40;;;2.13;;
11998;SDS011;40817;51.520;9.954;2023-08-06T07:08:34;3.78;;;1.85;;
11998;SDS011;40817;51.520;9.954;2023-08-06T07:11:02;2.63;;;1.52;;
11998;SDS011;40817;51.520;9.954;2023-08-06T07:13:32;3.33;;;1.90;;
11998;SDS011;40817;51.520;9.954;2023-08-06T07:16:02;3.70;;;2.40;;
11998;SDS011;40817;51.520;9.954;2023-08-06T07:18:30;3.05;;;2.08;;
11998;SDS011;40817;51.520;9.954;2023-08-06T07:20:58;3.88;;;2.20;;
11998;SDS011;40817;51.520;9.954;2023-08-06T07:23:25;3.85;;;2.55;;
11998;SDS011;40817;51.520;9.954;2023-08-06T07:25:53;2.65;;;1.75;;
11998;SDS011;40817;51.520;9.954;2023-08-06T07:28:25;3.88;;;1.85;;
11998;SDS011;40817;51.520;9.954;2023-08-06T07:30:52;3.22;;;1.95;;
11998;SDS011;40817;51.520;9.954;2023-08-06T07:33:21;2.65;;;1.88;;
11998;SDS011;40817;51.520;9.954;2023-08-06T07:35:49;2.72;;;1.88;;
11998;SDS011;40817;51.520;9.954;2023-08-06T07:38:16;3.13;;;2.03;;
11998;SDS011;40817;51.520;9.954;2023-08-06T07:40:44;3.72;;;1.90;;
11998;SDS011;40817;51.520;9.954;2023-08-06T07:43:11;3.35;;;1.80;;
11998;SDS011;40817;51.520;9.954;2023-08-06T07:45:39;2.95;;;1.73;;
11998;SDS011;40817;51.520;9.954;2023-08-06T07:48:07;4.00;;;1.83;;
11998;SDS011;40817;51.520;9.954;2023-08-06T07:50:35;3.22;;;2.00;;
11998;SDS011;40817;51.520;9.954;2023-08-06T07:53:03;4.28;;;1.75;;
11998;SDS011;40817;51.520;9.954;2023-08-06T07:55:31;4.32;;;2.03;;
11998;SDS011;40817;51.520;9.954;2023-08-06T07:57:58;2.63;;;1.77;;
11998;SDS011;40817;51.520;9.954;2023-08-06T08:00:26;3.90;;;1.50;;
11998;SDS011;40817;51.520;9.954;2023-08-06T08:02:54;4.03;;;1.83;;
11998;SDS011;40817;51.520;9.954;2023-08-06T08:05:21;2.75;;;1.50;;
11998;SDS011;40817;51.520;9.954;2023-08-06T08:07:53;2.38;;;1.60;;
11998;SDS011;40817;51.520;9.954;2023-08-06T08:10:21;2.75;;;1.90;;
11998;SDS011;40817;51.520;9.954;2023-08-06T08:12:48;4.18;;;1.80;;
11998;SDS011;40817;51.520;9.954;2023-08-06T08:15:16;4.15;;;1.70;;
11998;SDS011;40817;51.520;9.954;2023-08-06T08:17:44;2.83;;;1.77;;
11998;SDS011;40817;51.520;9.954;2023-08-06T08:20:13;3.00;;;1.58;;
11998;SDS011;40817;51.520;9.954;2023-08-06T08:22:43;2.13;;;1.33;;
11998;SDS011;40817;51.520;9.954;2023-08-06T08:25:11;2.67;;;1.73;;
11998;SDS011;40817;51.520;9.954;2023-08-06T08:27:40;2.42;;;1.63;;
11998;SDS011;40817;51.520;9.954;2023-08-06T08:30:07;2.58;;;1.60;;
11998;SDS011;40817;51.520;9.954;2023-08-06T08:32:36;2.20;;;1.40;;
11998;SDS011;40817;51.520;9.954;2023-08-06T08:35:03;2.72;;;1.27;;
11998;SDS011;40817;51.520;9.954;2023-08-06T08:37:31;2.83;;;1.23;;
11998;SDS011;40817;51.520;9.954;2023-08-06T08:39:59;3.83;;;1.67;;
11998;SDS011;40817;51.520;9.954;2023-08-06T08:42:27;2.92;;;1.90;;
11998;SDS011;40817;51.520;9.954;2023-08-06T08:44:55;1.90;;;1.50;;
11998;SDS011;40817;51.520;9.954;2023-08-06T08:47:23;2.40;;;1.50;;
11998;SDS011;40817;51.520;9.954;2023-08-06T08:49:52;2.38;;;1.40;;
11998;SDS011;40817;51.520;9.954;2023-08-06T08:52:21;3.10;;;1.40;;
11998;SDS011;40817;51.520;9.954;2023-08-06T08:54:51;4.78;;;1.60;;
11998;SDS011;40817;51.520;9.954;2023-08-06T08:57:19;2.33;;;1.33;;
11998;SDS011;40817;51.520;9.954;2023-08-06T08:59:49;4.78;;;1.58;;
11998;SDS011;40817;51.520;9.954;2023-08-06T09:02:17;2.63;;;1.52;;
11998;SDS011;40817;51.520;9.954;2023-08-06T09:04:47;2.17;;;1.25;;
11998;SDS011;40817;51.520;9.954;2023-08-06T09:07:17;2.22;;;1.40;;
11998;SDS011;40817;51.520;9.954;2023-08-06T09:09:48;2.55;;;1.58;;
11998;SDS011;40817;51.520;9.954;2023-08-06T09:12:18;3.13;;;1.48;;
11998;SDS011;40817;51.520;9.954;2023-08-06T09:14:45;3.00;;;1.63;;
11998;SDS011;40817;51.520;9.954;2023-08-06T09:17:14;3.17;;;1.55;;
11998;SDS011;40817;51.520;9.954;2023-08-06T09:19:45;3.15;;;1.40;;
11998;SDS011;40817;51.520;9.954;2023-08-06T09:22:15;3.13;;;1.60;;
11998;SDS011;40817;51.520;9.954;2023-08-06T09:24:42;2.72;;;1.25;;
11998;SDS011;40817;51.520;9.954;2023-08-06T09:27:10;2.63;;;1.40;;
11998;SDS011;40817;51.520;9.954;2023-08-06T09:29:40;2.25;;;1.40;;
11998;SDS011;40817;51.520;9.954;2023-08-06T09:32:10;2.60;;;1.17;;
11998;SDS011;40817;51.520;9.954;2023-08-06T09:34:41;2.58;;;1.33;;
11998;SDS011;40817;51.520;9.954;2023-08-06T09:37:10;2.70;;;1.30;;
11998;SDS011;40817;51.520;9.954;2023-08-06T09:39:38;2.05;;;1.33;;
11998;SDS011;40817;51.520;9.954;2023-08-06T09:42:07;2.45;;;1.45;;
11998;SDS011;40817;51.520;9.954;2023-08-06T09:44:34;3.88;;;1.95;;
11998;SDS011;40817;51.520;9.954;2023-08-06T09:47:04;3.40;;;1.50;;
11998;SDS011;40817;51.520;9.954;2023-08-06T09:49:41;3.95;;;1.55;;
11998;SDS011;40817;51.520;9.954;2023-08-06T09:52:10;3.25;;;1.33;;
11998;SDS011;40817;51.520;9.954;2023-08-06T09:54:41;2.38;;;1.15;;
11998;SDS011;40817;51.520;9.954;2023-08-06T09:57:11;3.58;;;1.83;;
11998;SDS011;40817;51.520;9.954;2023-08-06T09:59:40;2.17;;;1.25;;
11998;SDS011;40817;51.520;9.954;2023-08-06T10:02:12;2.92;;;1.70;;
11998;SDS011;40817;51.520;9.954;2023-08-06T10:04:41;3.55;;;1.70;;
11998;SDS011;40817;51.520;9.954;2023-08-06T10:07:12;3.95;;;1.50;;
11998;SDS011;40817;51.520;9.954;2023-08-06T10:09:40;2.20;;;1.23;;
11998;SDS011;40817;51.520;9.954;2023-08-06T10:12:08;2.45;;;1.20;;
11998;SDS011;40817;51.520;9.954;2023-08-06T10:14:36;1.83;;;1.10;;
11998;SDS011;40817;51.520;9.954;2023-08-06T10:17:06;3.97;;;1.60;;
11998;SDS011;40817;51.520;9.954;2023-08-06T10:19:34;6.63;;;1.83;;
11998;SDS011;40817;51.520;9.954;2023-08-06T10:22:11;2.47;;;1.40;;
11998;SDS011;40817;51.520;9.954;2023-08-06T10:24:47;2.72;;;1.20;;
11998;SDS011;40817;51.520;9.954;2023-08-06T10:27:19;2.10;;;1.48;;
11998;SDS011;40817;51.520;9.954;2023-08-06T10:29:49;3.00;;;1.35;;
11998;SDS011;40817;51.520;9.954;2023-08-06T10:32:16;2.47;;;1.40;;
11998;SDS011;40817;51.520;9.954;2023-08-06T10:34:54;1.98;;;1.35;;
11998;SDS011;40817;51.520;9.954;2023-08-06T10:37:36;2.13;;;0.90;;
11998;SDS011;40817;51.520;9.954;2023-08-06T10:40:04;2.42;;;1.10;;
11998;SDS011;40817;51.520;9.954;2023-08-06T10:42:34;2.30;;;1.42;;
11998;SDS011;40817;51.520;9.954;2023-08-06T10:45:12;2.17;;;1.30;;
11998;SDS011;40817;51.520;9.954;2023-08-06T10:47:41;6.38;;;1.23;;
11998;SDS011;40817;51.520;9.954;2023-08-06T10:50:10;3.28;;;1.10;;
11998;SDS011;40817;51.520;9.954;2023-08-06T10:52:44;3.03;;;1.30;;
11998;SDS011;40817;51.520;9.954;2023-08-06T10:55:13;3.25;;;1.40;;
11998;SDS011;40817;51.520;9.954;2023-08-06T10:57:48;3.83;;;1.88;;
11998;SDS011;40817;51.520;9.954;2023-08-06T11:00:15;2.38;;;1.40;;
11998;SDS011;40817;51.520;9.954;2023-08-06T11:02:43;1.90;;;1.42;;
11998;SDS011;40817;51.520;9.954;2023-08-06T11:05:13;2.25;;;1.42;;
11998;SDS011;40817;51.520;9.954;2023-08-06T11:07:40;3.38;;;1.30;;
11998;SDS011;40817;51.520;9.954;2023-08-06T11:10:10;2.47;;;1.00;;
11998;SDS011;40817;51.520;9.954;2023-08-06T11:12:39;2.65;;;1.30;;
11998;SDS011;40817;51.520;9.954;2023-08-06T11:15:07;1.92;;;1.10;;
11998;SDS011;40817;51.520;9.954;2023-08-06T11:17:36;2.88;;;1.05;;
11998;SDS011;40817;51.520;9.954;2023-08-06T11:20:07;2.75;;;1.00;;
11998;SDS011;40817;51.520;9.954;2023-08-06T11:22:37;2.28;;;1.10;;
11998;SDS011;40817;51.520;9.954;2023-08-06T11:25:05;2.35;;;1.17;;
11998;SDS011;40817;51.520;9.954;2023-08-06T11:27:35;1.98;;;1.40;;
11998;SDS011;40817;51.520;9.954;2023-08-06T11:30:03;2.13;;;1.23;;
11998;SDS011;40817;51.520;9.954;2023-08-06T11:32:32;2.65;;;1.20;;
11998;SDS011;40817;51.520;9.954;2023-08-06T11:35:08;2.15;;;1.10;;
11998;SDS011;40817;51.520;9.954;2023-08-06T11:37:38;1.95;;;1.10;;
11998;SDS011;40817;51.520;9.954;2023-08-06T11:40:11;1.65;;;1.00;;
11998;SDS011;40817;51.520;9.954;2023-08-06T11:42:42;2.70;;;1.10;;
11998;SDS011;40817;51.520;9.954;2023-08-06T11:45:13;2.35;;;1.23;;
11998;SDS011;40817;51.520;9.954;2023-08-06T11:47:40;2.67;;;1.10;;
11998;SDS011;40817;51.520;9.954;2023-08-06T11:50:08;3.45;;;0.98;;
11998;SDS011;40817;51.520;9.954;2023-08-06T11:52:48;2.22;;;1.10;;
11998;SDS011;40817;51.520;9.954;2023-08-06T11:55:23;4.38;;;1.60;;
11998;SDS011;40817;51.520;9.954;2023-08-06T11:57:52;2.88;;;1.20;;
11998;SDS011;40817;51.520;9.954;2023-08-06T12:00:22;2.00;;;0.90;;
11998;SDS011;40817;51.520;9.954;2023-08-06T12:02:52;1.98;;;1.10;;
11998;SDS011;40817;51.520;9.954;2023-08-06T12:05:20;1.80;;;1.00;;
11998;SDS011;40817;51.520;9.954;2023-08-06T12:07:51;3.45;;;0.95;;
11998;SDS011;40817;51.520;9.954;2023-08-06T12:10:21;1.80;;;1.00;;
11998;SDS011;40817;51.520;9.954;2023-08-06T12:12:53;2.50;;;1.35;;
11998;SDS011;40817;51.520;9.954;2023-08-06T12:15:21;1.85;;;1.00;;
11998;SDS011;40817;51.520;9.954;2023-08-06T12:17:50;3.47;;;1.20;;
11998;SDS011;40817;51.520;9.954;2023-08-06T12:20:17;2.97;;;1.20;;
11998;SDS011;40817;51.520;9.954;2023-08-06T12:22:45;1.42;;;0.90;;
11998;SDS011;40817;51.520;9.954;2023-08-06T12:25:13;1.90;;;1.15;;
11998;SDS011;40817;51.520;9.954;2023-08-06T12:27:41;1.60;;;1.10;;
11998;SDS011;40817;51.520;9.954;2023-08-06T12:30:12;3.33;;;1.00;;
11998;SDS011;40817;51.520;9.954;2023-08-06T12:32:40;3.33;;;1.23;;
11998;SDS011;40817;51.520;9.954;2023-08-06T12:35:08;1.63;;;1.05;;
11998;SDS011;40817;51.520;9.954;2023-08-06T12:37:35;2.80;;;1.10;;
11998;SDS011;40817;51.520;9.954;2023-08-06T12:40:04;1.65;;;1.00;;
11998;SDS011;40817;51.520;9.954;2023-08-06T12:42:33;2.03;;;1.30;;
11998;SDS011;40817;51.520;9.954;2023-08-06T12:45:00;1.85;;;0.95;;
11998;SDS011;40817;51.520;9.954;2023-08-06T12:47:29;2.28;;;1.08;;
11998;SDS011;40817;51.520;9.954;2023-08-06T12:49:57;2.22;;;1.10;;
11998;SDS011;40817;51.520;9.954;2023-08-06T12:52:24;2.08;;;1.25;;
11998;SDS011;40817;51.520;9.954;2023-08-06T12:54:52;3.28;;;1.13;;
11998;SDS011;40817;51.520;9.954;2023-08-06T12:57:19;3.50;;;1.30;;
11998;SDS011;40817;51.520;9.954;2023-08-06T12:59:47;4.15;;;1.35;;
11998;SDS011;40817;51.520;9.954;2023-08-06T13:02:14;10.77;;;2.08;;
11998;SDS011;40817;51.520;9.954;2023-08-06T13:04:45;6.28;;;1.20;;
11998;SDS011;40817;51.520;9.954;2023-08-06T13:07:14;3.53;;;1.70;;
11998;SDS011;40817;51.520;9.954;2023-08-06T13:09:41;4.40;;;1.05;;
11998;SDS011;40817;51.520;9.954;2023-08-06T13:12:09;3.47;;;1.55;;
11998;SDS011;40817;51.520;9.954;2023-08-06T13:14:36;2.40;;;1.25;;
11998;SDS011;40817;51.520;9.954;2023-08-06T13:17:03;2.45;;;1.33;;
11998;SDS011;40817;51.520;9.954;2023-08-06T13:19:33;4.38;;;1.50;;
11998;SDS011;40817;51.520;9.954;2023-08-06T13:22:02;2.55;;;1.23;;
11998;SDS011;40817;51.520;9.954;2023-08-06T13:24:34;5.32;;;1.30;;
11998;SDS011;40817;51.520;9.954;2023-08-06T13:27:02;3.33;;;1.20;;
11998;SDS011;40817;51.520;9.954;2023-08-06T13:29:29;1.88;;;1.10;;
11998;SDS011;40817;51.520;9.954;2023-08-06T13:31:57;2.50;;;1.23;;
11998;SDS011;40817;51.520;9.954;2023-08-06T13:34:24;3.42;;;1.85;;
11998;SDS011;40817;51.520;9.954;2023-08-06T13:36:52;7.22;;;2.17;;
11998;SDS011;40817;51.520;9.954;2023-08-06T13:39:20;8.43;;;2.30;;
11998;SDS011;40817;51.520;9.954;2023-08-06T13:41:48;7.35;;;2.35;;
11998;SDS011;40817;51.520;9.954;2023-08-06T13:44:15;5.30;;;2.20;;
11998;SDS011;40817;51.520;9.954;2023-08-06T13:46:43;4.35;;;2.13;;
11998;SDS011;40817;51.520;9.954;2023-08-06T13:49:10;5.72;;;1.92;;
11998;SDS011;40817;51.520;9.954;2023-08-06T13:51:38;2.95;;;1.50;;
11998;SDS011;40817;51.520;9.954;2023-08-06T13:54:05;5.75;;;1.65;;
11998;SDS011;40817;51.520;9.954;2023-08-06T13:56:35;5.35;;;1.60;;
11998;SDS011;40817;51.520;9.954;2023-08-06T13:59:03;6.93;;;1.88;;
11998;SDS011;40817;51.520;9.954;2023-08-06T14:01:31;5.70;;;1.90;;
11998;SDS011;40817;51.520;9.954;2023-08-06T14:03:59;5.35;;;1.60;;
11998;SDS011;40817;51.520;9.954;2023-08-06T14:06:26;3.90;;;1.40;;
11998;SDS011;40817;51.520;9.954;2023-08-06T14:08:54;3.63;;;1.42;;
11998;SDS011;40817;51.520;9.954;2023-08-06T14:11:21;3.85;;;1.55;;
11998;SDS011;40817;51.520;9.954;2023-08-06T14:13:50;4.97;;;1.52;;
11998;SDS011;40817;51.520;9.954;2023-08-06T14:16:18;4.03;;;1.58;;
11998;SDS011;40817;51.520;9.954;2023-08-06T14:18:46;3.67;;;1.45;;
11998;SDS011;40817;51.520;9.954;2023-08-06T14:21:14;4.03;;;2.10;;
11998;SDS011;40817;51.520;9.954;2023-08-06T14:23:42;5.45;;;1.83;;
11998;SDS011;40817;51.520;9.954;2023-08-06T14:26:10;3.28;;;1.50;;
11998;SDS011;40817;51.520;9.954;2023-08-06T14:28:40;5.38;;;1.60;;
11998;SDS011;40817;51.520;9.954;2023-08-06T14:31:09;4.45;;;2.22;;
11998;SDS011;40817;51.520;9.954;2023-08-06T14:33:37;3.65;;;1.70;;
11998;SDS011;40817;51.520;9.954;2023-08-06T14:36:05;3.38;;;1.60;;
11998;SDS011;40817;51.520;9.954;2023-08-06T14:38:32;3.53;;;1.90;;
11998;SDS011;40817;51.520;9.954;2023-08-06T14:41:00;3.33;;;1.70;;
11998;SDS011;40817;51.520;9.954;2023-08-06T14:43:27;3.22;;;1.70;;
11998;SDS011;40817;51.520;9.954;2023-08-06T14:45:55;4.75;;;1.60;;
11998;SDS011;40817;51.520;9.954;2023-08-06T14:48:24;3.05;;;1.65;;
11998;SDS011;40817;51.520;9.954;2023-08-06T14:50:51;3.83;;;1.30;;
11998;SDS011;40817;51.520;9.954;2023-08-06T14:53:20;3.33;;;1.50;;
11998;SDS011;40817;51.520;9.954;2023-08-06T14:55:47;5.82;;;2.05;;
11998;SDS011;40817;51.520;9.954;2023-08-06T14:58:15;2.58;;;1.42;;
11998;SDS011;40817;51.520;9.954;2023-08-06T15:00:42;3.45;;;1.85;;